Map

Track Data

SID SEASON NUMBER BASIN SUBBASIN NAME ISO_TIME NATURE LAT LON WMO_WIND WMO_PRES WMO_AGENCY TRACK_TYPE DIST2LAND LANDFALL IFLAG USA_AGENCY USA_ATCF_ID USA_LAT USA_LON USA_RECORD USA_STATUS USA_WIND USA_PRES USA_SSHS USA_R34_NE USA_R34_SE USA_R34_SW USA_R34_NW USA_R50_NE USA_R50_SE USA_R50_SW USA_R50_NW USA_R64_NE USA_R64_SE USA_R64_SW USA_R64_NW USA_POCI USA_ROCI USA_RMW USA_EYE TOKYO_LAT TOKYO_LON TOKYO_GRADE TOKYO_WIND TOKYO_PRES TOKYO_R50_DIR TOKYO_R50_LONG TOKYO_R50_SHORT TOKYO_R30_DIR TOKYO_R30_LONG TOKYO_R30_SHORT TOKYO_LAND CMA_LAT CMA_LON CMA_CAT CMA_WIND CMA_PRES HKO_LAT HKO_LON HKO_CAT HKO_WIND HKO_PRES NEWDELHI_LAT NEWDELHI_LON NEWDELHI_GRADE NEWDELHI_WIND NEWDELHI_PRES NEWDELHI_CI NEWDELHI_DP NEWDELHI_POCI REUNION_LAT REUNION_LON REUNION_TYPE REUNION_WIND REUNION_PRES REUNION_TNUM REUNION_CI REUNION_RMW REUNION_R34_NE REUNION_R34_SE REUNION_R34_SW REUNION_R34_NW REUNION_R50_NE REUNION_R50_SE REUNION_R50_SW REUNION_R50_NW REUNION_R64_NE REUNION_R64_SE REUNION_R64_SW REUNION_R64_NW BOM_LAT BOM_LON BOM_TYPE BOM_WIND BOM_PRES BOM_TNUM BOM_CI BOM_RMW BOM_R34_NE BOM_R34_SE BOM_R34_SW BOM_R34_NW BOM_R50_NE BOM_R50_SE BOM_R50_SW BOM_R50_NW BOM_R64_NE BOM_R64_SE BOM_R64_SW BOM_R64_NW BOM_ROCI BOM_POCI BOM_EYE BOM_POS_METHOD BOM_PRES_METHOD NADI_LAT NADI_LON NADI_CAT NADI_WIND NADI_PRES WELLINGTON_LAT WELLINGTON_LON WELLINGTON_WIND WELLINGTON_PRES DS824_LAT DS824_LON DS824_STAGE DS824_WIND DS824_PRES TD9636_LAT TD9636_LON TD9636_STAGE TD9636_WIND TD9636_PRES TD9635_LAT TD9635_LON TD9635_WIND TD9635_PRES TD9635_ROCI NEUMANN_LAT NEUMANN_LON NEUMANN_CLASS NEUMANN_WIND NEUMANN_PRES MLC_LAT MLC_LON MLC_CLASS MLC_WIND MLC_PRES USA_GUST BOM_GUST BOM_GUST_PER REUNION_GUST REUNION_GUST_PER USA_SEAHGT USA_SEARAD_NE USA_SEARAD_SE USA_SEARAD_SW USA_SEARAD_NW STORM_SPEED STORM_DIR
1946131N11143 1946 29 WP MM CHARLOTT 1946-05-11 00:00:00 TS 11.4000 142.500 main 1532 1528 O________OOO__ jtwc_wp WP021946 11.4000 142.500 25 -1 11.4000 142.500 TC 25 11.4000 142.500 1 25 11.4000 142.500 25 997 180 5 295
1946131N11143 1946 29 WP MM CHARLOTT 1946-05-11 03:00:00 TS 11.4962 142.292 main 1536 1533 P________PPP__ WP021946 11.5000 142.283 37 0 11.5000 142.283 TC 37 11.4845 142.320 1 38 11.5000 142.283 37 995 180 4 297
1946131N11143 1946 29 WP MM CHARLOTT 1946-05-11 06:00:00 TS 11.5938 142.113 main 1540 1537 O________OPO__ jtwc_wp WP021946 11.6000 142.100 50 0 11.6000 142.100 TC 50 11.5751 142.153 1 52 11.6000 142.100 50 994 180 4 303
1946131N11143 1946 29 WP MM CHARLOTT 1946-05-11 09:00:00 TS 11.6945 141.985 main 1548 1545 P________PPP__ WP021946 11.7000 141.977 65 1 11.7000 141.977 TC 65 11.6782 142.008 1 66 11.7000 141.977 65 992 210 3 315
1946131N11143 1946 29 WP MM CHARLOTT 1946-05-11 12:00:00 TS 11.8000 141.900 main 1556 1556 O________OOO__ jtwc_wp WP021946 11.8000 141.900 80 1 11.8000 141.900 TC 80 11.8000 141.900 3 80 11.8000 141.900 80 990 240 3 324
1946131N11143 1946 29 WP MM CHARLOTT 1946-05-11 15:00:00 TS 11.8997 141.835 main 1564 1564 P________PPP__ WP021946 11.8850 141.835 80 1 11.8850 141.835 TC 80 11.9437 141.835 3 80 11.8850 141.835 80 986 240 2 337
1946131N11143 1946 29 WP MM CHARLOTT 1946-05-11 18:00:00 TS 12.0250 141.801 main 1574 1574 O________OPO__ jtwc_wp WP021946 12.0000 141.800 80 1 12.0000 141.800 TC 80 12.0999 141.805 3 80 12.0000 141.800 80 982 240 3 353
1946131N11143 1946 29 WP MM CHARLOTT 1946-05-11 21:00:00 TS 12.2141 141.794 main 1595 1595 P________PPP__ WP021946 12.2000 141.792 80 1 12.2000 141.792 TC 80 12.2562 141.797 3 80 12.2000 141.792 80 979 240 4 358
1946131N11143 1946 29 WP MM CHARLOTT 1946-05-12 00:00:00 TS 12.4000 141.800 main 1616 1616 O________OOO__ jtwc_wp WP021946 12.4000 141.800 80 1 12.4000 141.800 TC 80 12.4000 141.800 4 80 12.4000 141.800 80 976 240 3 0
1946131N11143 1946 29 WP MM CHARLOTT 1946-05-12 03:00:00 TS 12.5138 141.799 main 1626 1626 P________PPP__ WP021946 12.5150 141.800 80 1 12.5150 141.800 TC 80 12.5103 141.797 4 80 12.5150 141.800 80 975 240 2 0
1946131N11143 1946 29 WP MM CHARLOTT 1946-05-12 06:00:00 TS 12.6019 141.800 main 1636 1636 O________OPO__ jtwc_wp WP021946 12.6000 141.800 80 1 12.6000 141.800 TC 80 12.6075 141.800 4 80 12.6000 141.800 80 975 240 2 0
1946131N11143 1946 29 WP MM CHARLOTT 1946-05-12 09:00:00 TS 12.7002 141.801 main 1646 1646 P________PPP__ WP021946 12.7000 141.800 80 1 12.7000 141.800 TC 80 12.7009 141.803 4 80 12.7000 141.800 80 975 240 2 0
1946131N11143 1946 29 WP MM CHARLOTT 1946-05-12 12:00:00 TS 12.8000 141.800 main 1657 1657 O________OOO__ jtwc_wp WP021946 12.8000 141.800 80 1 12.8000 141.800 TC 80 12.8000 141.800 4 80 12.8000 141.800 80 975 240 2 0
1946131N11143 1946 29 WP MM CHARLOTT 1946-05-12 15:00:00 TS 12.8988 141.803 main 1667 1667 P________PPP__ WP021946 12.8925 141.807 80 1 12.8925 141.807 TC 80 12.9178 141.790 4 80 12.8925 141.807 80 974 240 2 0
1946131N11143 1946 29 WP MM CHARLOTT 1946-05-12 18:00:00 TS 13.0106 141.793 main 1677 1677 O________OPO__ jtwc_wp WP021946 13.0000 141.800 80 1 13.0000 141.800 TC 80 13.0425 141.772 4 80 13.0000 141.800 80 974 240 3 348
1946131N11143 1946 29 WP MM CHARLOTT 1946-05-12 21:00:00 TS 13.1496 141.748 main 1683 1683 P________PPP__ WP021946 13.1425 141.750 80 1 13.1425 141.750 TC 80 13.1709 141.743 4 80 13.1425 141.750 80 974 240 3 344
1946131N11143 1946 29 WP MM CHARLOTT 1946-05-13 00:00:00 TS 13.3000 141.700 main 1704 1704 O________OOO__ jtwc_wp WP021946 13.3000 141.700 80 1 13.3000 141.700 TC 80 13.3000 141.700 4 80 13.3000 141.700 80 974 240 3 354
1946131N11143 1946 29 WP MM CHARLOTT 1946-05-13 03:00:00 TS 13.4494 141.699 main 1714 1714 P________PPP__ WP021946 13.4575 141.715 80 1 13.4575 141.715 TC 80 13.4250 141.652 4 80 13.4575 141.715 80 974 270 3 356
1946131N11143 1946 29 WP MM CHARLOTT 1946-05-13 06:00:00 TS 13.5875 141.672 main 1735 1731 O________OPO__ jtwc_wp WP021946 13.6000 141.700 80 1 13.6000 141.700 TC 80 13.5500 141.587 4 80 13.6000 141.700 80 974 300 3 331
1946131N11143 1946 29 WP MM CHARLOTT 1946-05-13 09:00:00 TS 13.6994 141.556 main 1741 1723 P________PPP__ WP021946 13.7075 141.573 80 1 13.7075 141.573 TC 80 13.6750 141.505 4 80 13.7075 141.573 80 973 270 3 309
1946131N11143 1946 29 WP MM CHARLOTT 1946-05-13 12:00:00 TS 13.8000 141.400 main 1723 1712 O________OOO__ jtwc_wp WP021946 13.8000 141.400 80 1 13.8000 141.400 TC 80 13.8000 141.400 4 80 13.8000 141.400 80 973 240 3 305
1946131N11143 1946 29 WP MM CHARLOTT 1946-05-13 15:00:00 TS 13.8965 141.267 main 1714 1695 P________PPP__ WP021946 13.8925 141.250 80 1 13.8925 141.250 TC 80 13.9084 141.320 4 80 13.8925 141.250 80 973 240 3 308
1946131N11143 1946 29 WP MM CHARLOTT 1946-05-13 18:00:00 TS 14.0049 141.128 main 1695 1686 O________OPO__ jtwc_wp WP021946 14.0000 141.100 80 1 14.0000 141.100 TC 80 14.0195 141.212 4 80 14.0000 141.100 80 974 240 3 314
1946131N11143 1946 29 WP MM CHARLOTT 1946-05-13 21:00:00 TS 14.1376 141.014 main 1686 1669 P________PPP__ WP021946 14.1348 141.002 80 1 14.1348 141.002 TC 80 14.1458 141.048 4 80 14.1348 141.002 80 975 270 4 313
1946131N11143 1946 29 WP MM CHARLOTT 1946-05-14 00:00:00 TS 14.3000 140.800 main 1669 1631 O________OOO__ jtwc_wp WP021946 14.3000 140.800 80 1 14.3000 140.800 TC 80 14.3000 140.800 4 80 14.3000 140.800 80 976 300 7 299
1946131N11143 1946 29 WP MM CHARLOTT 1946-05-14 03:00:00 TS 14.4871 140.356 main 1631 1582 P________PPP__ WP021946 14.4852 140.338 75 1 14.4852 140.338 TC 75 14.4928 140.412 4 77 14.4852 140.338 75 976 270 10 293
1946131N11143 1946 29 WP MM CHARLOTT 1946-05-14 06:00:00 TS 14.7034 139.836 main 1572 1533 O________OPO__ jtwc_wp WP021946 14.7000 139.800 70 1 14.7000 139.800 TC 70 14.7134 139.946 4 75 14.7000 139.800 70 977 240 10 296
1946131N11143 1946 29 WP MM CHARLOTT 1946-05-14 09:00:00 TS 14.9448 139.403 main 1533 1497 P________PPP__ WP021946 14.9423 139.385 70 1 14.9423 139.385 TC 70 14.9522 139.456 4 72 14.9423 139.385 70 978 270 10 302
1946131N11143 1946 29 WP MM CHARLOTT 1946-05-14 12:00:00 TS 15.2000 139.000 main 1497 1459 O________OOO__ jtwc_wp WP021946 15.2000 139.000 70 1 15.2000 139.000 TC 70 15.2000 139.000 4 70 15.2000 139.000 70 980 300 9 302
1946131N11143 1946 29 WP MM CHARLOTT 1946-05-14 15:00:00 TS 15.4431 138.588 main 1459 1425 P________PPP__ WP021946 15.4501 138.570 70 1 15.4501 138.570 TC 70 15.4222 138.640 4 70 15.4501 138.570 70 981 270 9 303
1946131N11143 1946 29 WP MM CHARLOTT 1946-05-14 18:00:00 TS 15.6887 138.231 main 1425 1410 O________OPO__ jtwc_wp WP021946 15.7000 138.200 70 1 15.7000 138.200 TC 70 15.6546 138.324 4 70 15.7000 138.200 70 982 240 7 310
1946131N11143 1946 29 WP MM CHARLOTT 1946-05-14 21:00:00 TS 15.9229 138.000 main 1410 1396 P________PPP__ WP021946 15.9273 137.985 70 1 15.9273 137.985 TC 70 15.9098 138.047 4 70 15.9273 137.985 70 983 240 7 321
1946131N11143 1946 29 WP MM CHARLOTT 1946-05-15 00:00:00 TS 16.2000 137.800 main 1399 1379 O________OOO__ jtwc_wp WP021946 16.2000 137.800 70 1 16.2000 137.800 TC 70 16.2000 137.800 4 70 16.2000 137.800 70 984 240 8 324
1946131N11143 1946 29 WP MM CHARLOTT 1946-05-15 03:00:00 TS 16.5756 137.502 main 1383 1368 P________PPP__ WP021946 16.5851 137.485 70 1 16.5851 137.485 TC 70 16.5471 137.551 4 66 16.5851 137.485 70 985 270 10 325
1946131N11143 1946 29 WP MM CHARLOTT 1946-05-15 06:00:00 TS 16.9818 137.233 main 1368 1367 O________OPO__ jtwc_wp WP021946 17.0000 137.200 70 1 17.0000 137.200 TC 70 16.9274 137.333 4 62 17.0000 137.200 70 986 300 9 333
1946131N11143 1946 29 WP MM CHARLOTT 1946-05-15 09:00:00 TS 17.3534 137.089 main 1376 1370 P________PPP__ WP021946 17.3649 137.070 62 0 17.3649 137.070 TC 62 17.3190 137.148 4 58 17.3649 137.070 62 986 270 8 343
1946131N11143 1946 29 WP MM CHARLOTT 1946-05-15 12:00:00 TS 17.7000 137.000 main 1380 1375 O________OOO__ jtwc_wp WP021946 17.7000 137.000 55 0 17.7000 137.000 TC 55 17.7000 137.000 2 55 17.7000 137.000 55 987 240 7 343
1946131N11143 1946 29 WP MM CHARLOTT 1946-05-15 15:00:00 TS 17.9987 136.885 main 1385 1380 P________PPP__ WP021946 18.0000 136.892 52 0 18.0000 136.892 TC 52 17.9946 136.861 2 53 18.0000 136.892 52 988 270 6 341
1946131N11143 1946 29 WP MM CHARLOTT 1946-05-15 18:00:00 TS 18.2956 136.790 main 1391 1391 O________OPO__ jtwc_wp WP021946 18.3000 136.800 50 0 18.3000 136.800 TC 50 18.2824 136.760 2 52 18.3000 136.800 50 989 300 6 346
1946131N11143 1946 29 WP MM CHARLOTT 1946-05-15 21:00:00 TS 18.5991 136.727 main 1397 1397 P________PPP__ WP021946 18.5975 136.735 50 0 18.5975 136.735 TC 50 18.6040 136.705 2 51 18.5975 136.735 50 990 270 7 353
1946131N11143 1946 29 WP MM CHARLOTT 1946-05-16 00:00:00 TS 19.0000 136.700 main 1420 1408 O________OOO__ jtwc_wp WP021946 19.0000 136.700 50 0 19.0000 136.700 TC 50 19.0000 136.700 2 50 19.0000 136.700 50 991 240 10 358
1946131N11143 1946 29 WP MM CHARLOTT 1946-05-16 03:00:00 TS 19.6033 136.679 main 1408 1347 P________PPP__ WP021946 19.6200 136.663 45 0 19.6200 136.663 TC 45 19.5533 136.729 2 46 19.6200 136.663 45 992 270 13 0
1946131N11143 1946 29 WP MM CHARLOTT 1946-05-16 06:00:00 TS 20.2694 136.727 main 1337 1296 O________OPO__ jtwc_wp WP021946 20.3000 136.700 40 0 20.3000 136.700 TC 40 20.1774 136.810 2 42 20.3000 136.700 40 994 300 13 9
1946131N11143 1946 29 WP MM CHARLOTT 1946-05-16 09:00:00 TS 20.8688 136.886 main 1286 1247 P________PPP__ WP021946 20.8875 136.870 37 0 20.8875 136.870 TC 37 20.8127 136.936 2 38 20.8875 136.870 37 995 270 12 17
1946131N11143 1946 29 WP MM CHARLOTT 1946-05-16 12:00:00 TS 21.4000 137.100 main 1247 1218 O________OOO__ jtwc_wp WP021946 21.4000 137.100 35 0 21.4000 137.100 TC 35 21.4000 137.100 2 35 21.4000 137.100 35 996 240 10 21
1946131N11143 1946 29 WP MM CHARLOTT 1946-05-16 15:00:00 TS 21.8404 137.294 main 1218 1191 P________PPP__ WP021946 21.8224 137.293 32 -1 21.8224 137.293 TC 32 21.8942 137.296 2 32 21.8224 137.293 32 997 210 9 24
1946131N11143 1946 29 WP MM CHARLOTT 1946-05-16 18:00:00 TS 22.2269 137.504 main 1191 1163 O________OPO__ jtwc_wp WP021946 22.2000 137.500 30 -1 22.2000 137.500 TC 30 22.3077 137.517 2 30 22.2000 137.500 30 998 180 9 28
1946131N11143 1946 29 WP MM CHARLOTT 1946-05-16 21:00:00 TS 22.6113 137.743 main 1163 1141 P________PPP__ WP021946 22.5926 137.740 27 -1 22.5926 137.740 TC 27 22.6674 137.754 2 27 22.5926 137.740 27 999 180 9 31
1946131N11143 1946 29 WP MM CHARLOTT 1946-05-17 00:00:00 TS 23.0000 138.000 main 1141 O________OOO__ jtwc_wp WP021946 23.0000 138.000 25 -1 23.0000 138.000 TC 25 23.0000 138.000 1 25 23.0000 138.000 25 1000 180 9 32

Digital Typhoon Data and Search

About IBTrACS Database

This database is a web-friendly format of International Best Track Archive for Climate Stewardship (IBTrACS), a global best track data archive curated by NOAA dating back to 1842.

Updated: 2021-11-26